Aérodrome :
LOGIN :

S'inscrire | Disclaimer

   EN    FR    IT 

 










Légende :    VFR   VFR Marginal   IFR   IFR Intensif   IFR Très Intensif
Visi : 
Plafond : 
>= 8 km
>= 3000ft
5 à 8 km
1000 à 3000 ft
1500m à 5 km
500 à 1000 ft
800 à 1500m
200 à 500 ft
< 800m
< 200 ft
Symboles :   Orages  Brouillard  Fortes neiges  Fortes précipitations  Vent > 20 kt
SIGMETs :   Divers  Orages  Givrage  Turbulence  Onde Orograph.  Cendres Volcan.







- Altitude de l'aérodrome : 239 ft
- Code IATA : VRN


LIPX - Villafranca Int. Verona

DERNIER METAR :
  • 222320Z 08003KT 050V110 9999 TS SCT040CB SCT080 17/13 Q1015

METARs EXPIRÉS :
  • 222250Z 08007KT 9999 TS SCT030CB SCT050 17/13 Q1016
  • 222220Z 07006KT 9999 VCTS BKN040 17/14 Q1015
  • 222150Z 08005KT 9999 SCT050 17/15 Q1015
  • 222120Z 07006KT 9999 BKN045 18/14 Q1015
  • 222050Z 05005KT 030V090 9999 BKN045 18/14 Q1015
  • 222020Z 06005KT 020V100 9999 BKN045 18/13 Q1015

TAF TAF LIPX
Valide du 23 à 00h jusqu'au 23 à 09h UTC


222300Z 2300/2309 VRB05KT 9999 SCT080
TEMPO 2300/2303 TSRA
Pas de NOTAMs connus pour ce terrain.



MET'MAP, la Météo Aéronautique d'un coup d'oeil ! - Copyright ORBIFLY Décembre 2007 - Disclaimer

ORBIFLY MET'MAP TEAM :

Programmation & Développement : Alexandra Zaïnal
Conception & Développement : Baudouin d'Aumeries
Co-Programmation & Développement : Marc-Olivier Méhu
Soutien technique & logistique : Manuel Goepfert

Contact : metmap@orbifly.com




SOURCES & CREDITS :

   NOAA